createdAt,value
2017-08-01T00:00:26.222Z,28.50
2017-08-01T00:02:53.749Z,28.50
2017-08-01T00:05:21.271Z,28.50
2017-08-01T00:07:48.782Z,28.40
2017-08-01T00:10:16.301Z,28.20
2017-08-01T00:12:43.845Z,28.20
2017-08-01T00:15:11.358Z,28.00
2017-08-01T00:17:38.889Z,28.00
2017-08-01T00:20:07.174Z,27.80
2017-08-01T00:22:34.700Z,27.80
2017-08-01T00:25:02.246Z,27.70
2017-08-01T00:27:29.786Z,27.60
2017-08-01T00:29:57.297Z,27.60
2017-08-01T00:32:25.585Z,27.50
2017-08-01T00:34:53.107Z,27.40
2017-08-01T00:37:20.653Z,27.40
2017-08-01T00:39:48.169Z,27.50
2017-08-01T00:42:15.748Z,27.60
2017-08-01T00:44:43.265Z,27.30
2017-08-01T00:47:11.554Z,27.50
2017-08-01T00:49:39.100Z,27.50
2017-08-01T00:52:07.382Z,27.70
2017-08-01T00:54:35.667Z,27.60
2017-08-01T00:57:03.194Z,27.60
2017-08-01T00:59:30.710Z,27.60
2017-08-01T01:01:58.251Z,27.60
2017-08-01T01:04:25.770Z,27.40
2017-08-01T01:06:53.288Z,27.30
2017-08-01T01:09:20.811Z,27.20
2017-08-01T01:11:49.088Z,27.20
2017-08-01T01:14:16.625Z,27.20
2017-08-01T01:16:44.141Z,27.30
2017-08-01T01:19:11.669Z,27.20
2017-08-01T01:21:39.193Z,27.30
2017-08-01T01:24:06.707Z,27.40
2017-08-01T01:26:34.254Z,27.60
2017-08-01T01:29:01.786Z,27.40
2017-08-01T01:31:30.105Z,27.50
2017-08-01T01:33:57.638Z,27.50
2017-08-01T01:36:25.173Z,27.50
2017-08-01T01:38:53.493Z,27.50
2017-08-01T01:41:21.015Z,27.50
2017-08-01T01:43:49.293Z,27.50
2017-08-01T01:46:17.582Z,27.50
2017-08-01T01:48:45.129Z,27.40
2017-08-01T01:51:13.439Z,27.50
2017-08-01T01:53:40.957Z,27.50
2017-08-01T01:56:09.242Z,27.60
2017-08-01T01:58:36.761Z,27.60
2017-08-01T02:01:04.278Z,27.50
2017-08-01T02:03:31.821Z,27.40
2017-08-01T02:05:59.345Z,27.40
2017-08-01T02:08:26.869Z,27.30
2017-08-01T02:10:54.385Z,27.40
2017-08-01T02:13:22.669Z,27.20
2017-08-01T02:15:50.974Z,27.30
2017-08-01T02:18:18.495Z,27.20
2017-08-01T02:20:46.786Z,27.20
2017-08-01T02:23:14.309Z,27.20
2017-08-01T02:25:41.825Z,27.10
2017-08-01T02:28:09.593Z,27.00
2017-08-01T02:30:37.105Z,26.90
2017-08-01T02:33:05.396Z,26.80
2017-08-01T02:35:32.917Z,26.80
2017-08-01T02:38:00.429Z,26.70
2017-08-01T02:40:27.973Z,26.80
2017-08-01T02:42:55.491Z,26.60
2017-08-01T02:45:23.015Z,26.40
2017-08-01T02:47:50.537Z,26.30
2017-08-01T02:50:18.824Z,26.20
2017-08-01T02:52:46.372Z,26.20
2017-08-01T02:55:14.657Z,26.40
2017-08-01T02:57:42.938Z,26.30
2017-08-01T03:00:10.470Z,26.30
2017-08-01T03:02:37.989Z,26.50
2017-08-01T03:05:05.538Z,26.60
2017-08-01T03:07:33.053Z,26.60
2017-08-01T03:10:01.338Z,26.30
2017-08-01T03:12:29.720Z,26.30
2017-08-01T03:14:57.997Z,26.30
2017-08-01T03:17:26.310Z,26.30
2017-08-01T03:19:53.824Z,26.30
2017-08-01T03:22:22.202Z,26.10
2017-08-01T03:24:50.494Z,26.00
2017-08-01T03:27:18.021Z,26.00
2017-08-01T03:29:45.574Z,25.90
2017-08-01T03:32:13.096Z,26.00
2017-08-01T03:34:40.613Z,26.20
2017-08-01T03:37:08.899Z,26.10
2017-08-01T03:39:36.414Z,26.00
2017-08-01T03:42:03.953Z,26.00
2017-08-01T03:44:31.474Z,26.00
2017-08-01T03:46:58.998Z,26.10
2017-08-01T03:49:26.516Z,26.20
2017-08-01T03:51:54.037Z,25.90
2017-08-01T03:54:22.341Z,26.00
2017-08-01T03:56:49.858Z,26.00
2017-08-01T03:59:17.375Z,25.90
2017-08-01T04:01:44.901Z,25.70
2017-08-01T04:04:12.426Z,25.70
2017-08-01T04:06:39.966Z,25.90
2017-08-01T04:09:07.484Z,26.00
2017-08-01T04:11:35.006Z,26.10
2017-08-01T04:14:02.525Z,26.30
2017-08-01T04:16:30.039Z,26.20
2017-08-01T04:18:58.347Z,26.20
2017-08-01T04:21:25.857Z,26.20
2017-08-01T04:23:53.376Z,26.10
2017-08-01T04:26:20.893Z,26.10
2017-08-01T04:28:49.187Z,26.40
2017-08-01T04:31:16.729Z,26.40
2017-08-01T04:33:45.021Z,26.60
2017-08-01T04:36:12.543Z,26.60
2017-08-01T04:38:40.114Z,26.80
2017-08-01T04:41:08.403Z,26.80
2017-08-01T04:43:35.946Z,26.80
2017-08-01T04:46:04.225Z,27.00
2017-08-01T04:48:32.511Z,26.90
2017-08-01T04:51:00.790Z,26.80
2017-08-01T04:53:29.076Z,26.80
2017-08-01T04:55:56.625Z,26.70
2017-08-01T04:58:24.145Z,26.80
2017-08-01T05:00:51.657Z,26.70
2017-08-01T05:03:19.181Z,26.80
2017-08-01T05:05:47.470Z,26.90
2017-08-01T05:08:15.790Z,27.00
2017-08-01T05:10:43.329Z,27.00
2017-08-01T05:13:10.853Z,27.10
2017-08-01T05:15:39.137Z,27.10
2017-08-01T05:18:07.426Z,26.90
2017-08-01T05:20:34.990Z,26.90
2017-08-01T05:23:02.513Z,27.10
2017-08-01T05:25:30.034Z,26.90
2017-08-01T05:27:57.553Z,27.10
2017-08-01T05:30:25.833Z,27.20
2017-08-01T05:32:53.374Z,27.20
2017-08-01T05:35:21.665Z,27.40
2017-08-01T05:37:49.945Z,27.50
2017-08-01T05:40:17.530Z,27.50
2017-08-01T05:42:45.058Z,27.50
2017-08-01T05:45:13.365Z,27.60
2017-08-01T05:47:40.886Z,27.60
2017-08-01T05:50:09.174Z,27.80
2017-08-01T05:52:36.699Z,27.80
2017-08-01T05:55:04.219Z,27.90
2017-08-01T05:57:31.786Z,27.90
2017-08-01T05:59:59.306Z,28.00
2017-08-01T06:02:26.818Z,28.00
2017-08-01T06:04:54.338Z,27.90
2017-08-01T06:07:21.869Z,28.10
2017-08-01T06:09:50.190Z,27.90
2017-08-01T06:12:17.721Z,27.90
2017-08-01T06:14:45.246Z,28.10
2017-08-01T06:17:12.765Z,28.30
2017-08-01T06:19:40.288Z,28.30
2017-08-01T06:22:07.830Z,28.40
2017-08-01T06:24:36.121Z,28.60
2017-08-01T06:27:04.416Z,28.60
2017-08-01T06:29:31.932Z,28.60
2017-08-01T06:31:59.453Z,28.60
2017-08-01T06:34:26.998Z,28.70
2017-08-01T06:36:54.515Z,28.50
2017-08-01T06:39:22.806Z,28.70
2017-08-01T06:41:51.085Z,28.80
2017-08-01T06:44:18.601Z,28.70
2017-08-01T06:46:46.141Z,28.90
2017-08-01T06:49:13.661Z,28.90
2017-08-01T06:51:41.178Z,28.90
2017-08-01T06:54:08.706Z,29.20
2017-08-01T06:56:36.234Z,29.20
2017-08-01T06:59:04.562Z,29.30
2017-08-01T07:01:32.077Z,29.20
2017-08-01T07:03:59.593Z,29.40
2017-08-01T07:06:27.105Z,29.60
2017-08-01T07:08:54.618Z,29.70
2017-08-01T07:11:22.170Z,29.60
2017-08-01T07:13:49.688Z,29.60
2017-08-01T07:16:17.213Z,29.70
2017-08-01T07:18:45.494Z,29.70
2017-08-01T07:21:13.774Z,29.70
2017-08-01T07:23:41.469Z,29.70
2017-08-01T07:26:08.990Z,29.90
2017-08-01T07:28:37.265Z,30.10
2017-08-01T07:31:04.785Z,30.00
2017-08-01T07:33:32.302Z,30.10
2017-08-01T07:35:59.854Z,30.20
2017-08-01T07:38:27.373Z,30.20
2017-08-01T07:40:54.900Z,30.30
2017-08-01T07:43:22.422Z,30.50
2017-08-01T07:45:49.943Z,30.50
2017-08-01T07:48:17.490Z,30.50
2017-08-01T07:50:45.010Z,30.80
2017-08-01T07:53:12.530Z,31.00
2017-08-01T07:55:40.821Z,31.20
2017-08-01T07:58:09.110Z,31.30
2017-08-01T08:00:36.661Z,31.30
2017-08-01T08:03:04.189Z,31.70
2017-08-01T08:05:31.715Z,32.00
2017-08-01T08:07:59.242Z,32.30
2017-08-01T08:10:26.762Z,32.20
2017-08-01T08:12:54.320Z,32.20
2017-08-01T08:15:21.942Z,32.00
2017-08-01T08:17:49.461Z,32.20
2017-08-01T08:20:17.739Z,32.20
2017-08-01T08:22:46.026Z,32.30
2017-08-01T08:25:13.581Z,32.40
2017-08-01T08:27:41.861Z,32.50
2017-08-01T08:30:09.377Z,32.50
2017-08-01T08:32:36.889Z,32.60
2017-08-01T08:35:04.417Z,32.90
2017-08-01T08:37:32.731Z,33.10
2017-08-01T08:40:00.262Z,33.00
2017-08-01T08:42:28.547Z,33.10
2017-08-01T08:44:56.065Z,33.00
2017-08-01T08:47:23.586Z,33.40
2017-08-01T08:49:51.133Z,33.60
2017-08-01T08:52:18.684Z,33.70
2017-08-01T08:54:46.212Z,33.70
2017-08-01T08:57:13.725Z,33.40
2017-08-01T08:59:41.246Z,33.40
2017-08-01T09:02:09.556Z,33.70
2017-08-01T09:04:37.083Z,33.70
2017-08-01T09:07:05.370Z,33.80
2017-08-01T09:09:32.894Z,33.80
2017-08-01T09:12:01.206Z,33.90
2017-08-01T09:14:28.746Z,33.90
2017-08-01T09:16:57.028Z,34.10
2017-08-01T09:19:25.320Z,34.20
2017-08-01T09:21:52.858Z,34.20
2017-08-01T09:24:21.151Z,34.10
2017-08-01T09:26:48.691Z,34.00
2017-08-01T09:29:16.973Z,34.20
2017-08-01T09:31:45.261Z,34.30
2017-08-01T09:34:12.805Z,34.30
2017-08-01T09:36:41.093Z,34.50
2017-08-01T09:39:09.402Z,34.60
2017-08-01T09:41:36.929Z,34.60
2017-08-01T09:44:04.457Z,34.70
2017-08-01T09:46:31.982Z,34.70
2017-08-01T09:48:59.495Z,34.70
2017-08-01T09:51:28.606Z,34.90
2017-08-01T09:53:56.142Z,34.80
2017-08-01T09:56:24.426Z,35.00
2017-08-01T09:58:52.715Z,35.00
2017-08-01T10:01:20.238Z,35.10
2017-08-01T10:03:47.789Z,35.20
2017-08-01T10:06:15.311Z,35.40
2017-08-01T10:08:42.826Z,35.50
2017-08-01T10:11:11.121Z,35.70
2017-08-01T10:13:38.633Z,35.60
2017-08-01T10:16:06.177Z,35.70
2017-08-01T10:18:33.701Z,35.80
2017-08-01T10:21:01.234Z,35.90
2017-08-01T10:23:29.523Z,36.10
2017-08-01T10:25:57.801Z,36.30
2017-08-01T10:28:26.110Z,36.30
2017-08-01T10:30:53.634Z,36.30
2017-08-01T10:33:21.918Z,36.30
2017-08-01T10:35:49.452Z,36.30
2017-08-01T10:38:17.739Z,36.50
2017-08-01T10:40:46.052Z,36.60
2017-08-01T10:43:13.566Z,36.60
2017-08-01T10:45:41.893Z,36.50
2017-08-01T10:48:09.410Z,36.50
2017-08-01T10:50:37.693Z,36.60
2017-08-01T10:53:05.246Z,36.60
2017-08-01T10:55:33.535Z,36.80
2017-08-01T10:58:01.070Z,36.80
2017-08-01T11:00:29.358Z,37.10
2017-08-01T11:02:57.739Z,37.20
2017-08-01T11:05:26.054Z,37.40
2017-08-01T11:07:53.576Z,37.30
2017-08-01T11:10:21.099Z,37.40
2017-08-01T11:12:48.614Z,37.30
2017-08-01T11:15:16.133Z,37.50
2017-08-01T11:17:44.445Z,37.60
2017-08-01T11:20:11.970Z,37.60
2017-08-01T11:22:40.263Z,37.70
2017-08-01T11:25:07.781Z,37.70
2017-08-01T11:27:35.298Z,37.70
2017-08-01T11:30:02.842Z,37.90
2017-08-01T11:32:30.413Z,38.00
2017-08-01T11:34:57.929Z,38.20
2017-08-01T11:37:25.445Z,38.20
2017-08-01T11:39:52.965Z,38.30
2017-08-01T11:42:21.277Z,38.40
2017-08-01T11:44:48.794Z,38.30
2017-08-01T11:47:17.084Z,38.60
2017-08-01T11:49:44.605Z,38.60
2017-08-01T11:52:12.118Z,38.50
2017-08-01T11:54:39.670Z,38.50
2017-08-01T11:57:07.194Z,38.40
2017-08-01T11:59:34.707Z,38.30
2017-08-01T12:02:02.226Z,38.30
2017-08-01T12:04:30.512Z,38.70
2017-08-01T12:06:58.058Z,38.70
2017-08-01T12:09:26.337Z,39.20
2017-08-01T12:11:54.638Z,39.50
2017-08-01T12:14:22.154Z,39.40
2017-08-01T12:16:49.675Z,39.50
2017-08-01T12:19:17.225Z,39.60
2017-08-01T12:21:44.758Z,39.60
2017-08-01T12:24:12.285Z,39.80
2017-08-01T12:26:39.809Z,40.00
2017-08-01T12:29:07.341Z,40.00
2017-08-01T12:31:35.002Z,40.10
2017-08-01T12:34:02.540Z,40.00
2017-08-01T12:36:30.825Z,40.10
2017-08-01T12:38:58.345Z,40.10
2017-08-01T12:41:25.975Z,40.30
2017-08-01T12:43:53.632Z,40.40
2017-08-01T12:46:21.159Z,40.70
2017-08-01T12:48:49.485Z,40.80
2017-08-01T12:51:16.997Z,40.80
2017-08-01T12:53:45.284Z,41.00
2017-08-01T12:56:12.842Z,40.90
2017-08-01T12:58:40.361Z,41.10
2017-08-01T13:01:07.885Z,41.20
2017-08-01T13:03:35.404Z,41.10
2017-08-01T13:06:03.706Z,40.70
2017-08-01T13:08:31.259Z,40.60
2017-08-01T13:10:58.794Z,40.90
2017-08-01T13:13:27.084Z,41.60
2017-08-01T13:15:54.614Z,41.60
2017-08-01T13:18:22.229Z,41.70
2017-08-01T13:20:49.770Z,41.90
2017-08-01T13:23:17.287Z,41.80
2017-08-01T13:25:44.805Z,42.20
2017-08-01T13:28:12.323Z,42.10
2017-08-01T13:30:40.609Z,42.60
2017-08-01T13:33:08.162Z,42.50
2017-08-01T13:35:36.614Z,42.80
2017-08-01T13:38:04.147Z,42.90
2017-08-01T13:40:31.682Z,43.10
2017-08-01T13:42:59.341Z,43.20
2017-08-01T13:45:26.990Z,43.50
2017-08-01T13:47:54.782Z,43.30
2017-08-01T13:50:22.444Z,43.50
2017-08-01T13:52:49.985Z,43.80
2017-08-01T13:55:17.663Z,44.10
2017-08-01T13:57:45.202Z,44.00
2017-08-01T14:00:12.735Z,43.90
2017-08-01T14:02:41.017Z,44.00
2017-08-01T14:05:09.306Z,43.90
2017-08-01T14:07:36.849Z,43.90
2017-08-01T14:10:05.163Z,44.50
2017-08-01T14:12:32.691Z,44.40
2017-08-01T14:15:00.322Z,44.70
2017-08-01T14:17:28.022Z,44.40
2017-08-01T14:19:55.613Z,44.40
2017-08-01T14:22:23.226Z,44.80
2017-08-01T14:24:51.689Z,44.50
2017-08-01T14:27:20.439Z,44.50
2017-08-01T14:29:48.101Z,44.90
2017-08-01T14:32:15.791Z,45.70
2017-08-01T14:34:43.734Z,45.90
2017-08-01T14:37:11.370Z,46.20
2017-08-01T14:39:38.892Z,46.60
2017-08-01T14:42:06.518Z,46.40
2017-08-01T14:44:34.163Z,46.00
2017-08-01T14:47:01.835Z,45.60
2017-08-01T14:49:29.497Z,46.10
2017-08-01T14:51:57.053Z,45.70
2017-08-01T14:54:24.572Z,46.20
2017-08-01T14:56:52.861Z,46.20
2017-08-01T14:59:20.402Z,46.30
2017-08-01T15:01:48.681Z,46.40
2017-08-01T15:04:16.966Z,46.80
2017-08-01T15:06:45.249Z,47.30
2017-08-01T15:09:12.765Z,47.20
2017-08-01T15:11:40.312Z,47.50
2017-08-01T15:14:07.831Z,47.60
2017-08-01T15:16:35.362Z,47.70
2017-08-01T15:19:03.653Z,47.10
2017-08-01T15:21:31.942Z,47.10
2017-08-01T15:23:59.487Z,47.10
2017-08-01T15:26:27.769Z,48.20
2017-08-01T15:28:55.290Z,48.10
2017-08-01T15:31:22.812Z,48.40
2017-08-01T15:33:50.341Z,48.50
2017-08-01T15:36:17.889Z,48.70
2017-08-01T15:38:46.173Z,47.30
2017-08-01T15:41:14.459Z,47.90
2017-08-01T15:43:41.982Z,47.90
2017-08-01T15:46:09.510Z,48.20
2017-08-01T15:48:37.054Z,48.60
2017-08-01T15:51:04.574Z,48.70
2017-08-01T15:53:32.857Z,49.10
2017-08-01T15:56:01.146Z,48.80
2017-08-01T15:58:28.680Z,48.80
2017-08-01T16:00:57.006Z,47.90
2017-08-01T16:03:24.534Z,47.90
2017-08-01T16:05:52.813Z,47.10
2017-08-01T16:08:20.337Z,47.10
2017-08-01T16:10:47.857Z,46.10
2017-08-01T16:13:15.398Z,45.20
2017-08-01T16:15:42.923Z,44.30
2017-08-01T16:18:10.434Z,43.60
2017-08-01T16:20:37.954Z,43.10
2017-08-01T16:23:06.269Z,42.60
2017-08-01T16:25:33.809Z,42.60
2017-08-01T16:28:01.326Z,42.40
2017-08-01T16:30:28.845Z,42.20
2017-08-01T16:32:56.362Z,41.90
2017-08-01T16:35:24.653Z,41.70
2017-08-01T16:37:52.218Z,41.60
2017-08-01T16:40:19.737Z,41.50
2017-08-01T16:42:47.264Z,41.30
2017-08-01T16:45:14.781Z,41.10
2017-08-01T16:47:43.070Z,39.80
2017-08-01T16:50:10.623Z,39.70
2017-08-01T16:52:38.145Z,39.50
2017-08-01T16:55:05.687Z,39.60
2017-08-01T16:57:33.214Z,39.50
2017-08-01T17:00:00.734Z,39.30
2017-08-01T17:02:29.073Z,38.90
2017-08-01T17:04:56.616Z,38.90
2017-08-01T17:07:24.140Z,38.60
2017-08-01T17:09:52.421Z,38.20
2017-08-01T17:12:19.947Z,38.20
2017-08-01T17:14:47.568Z,38.00
2017-08-01T17:17:15.093Z,37.80
2017-08-01T17:19:43.381Z,37.70
2017-08-01T17:22:10.917Z,37.70
2017-08-01T17:24:39.210Z,37.40
2017-08-01T17:27:06.786Z,37.30
2017-08-01T17:29:34.306Z,37.10
2017-08-01T17:32:01.825Z,37.00
2017-08-01T17:34:29.367Z,36.80
2017-08-01T17:36:56.901Z,36.50
2017-08-01T17:39:24.441Z,36.50
2017-08-01T17:41:52.733Z,36.60
2017-08-01T17:44:21.022Z,36.60
2017-08-01T17:46:48.569Z,36.50
2017-08-01T17:49:16.881Z,36.70
2017-08-01T17:51:44.424Z,36.70
2017-08-01T17:54:11.946Z,36.70
2017-08-01T17:56:40.245Z,36.40
2017-08-01T17:59:07.761Z,36.30
2017-08-01T18:01:35.278Z,36.40
2017-08-01T18:04:02.862Z,36.30
2017-08-01T18:06:30.405Z,36.40
2017-08-01T18:08:57.938Z,36.40
2017-08-01T18:11:25.466Z,36.40
2017-08-01T18:13:52.987Z,36.50
2017-08-01T18:16:20.553Z,36.60
2017-08-01T18:18:48.077Z,36.60
2017-08-01T18:21:15.601Z,36.60
2017-08-01T18:23:43.126Z,36.50
2017-08-01T18:26:10.649Z,36.50
2017-08-01T18:28:38.226Z,36.20
2017-08-01T18:31:05.750Z,35.90
2017-08-01T18:33:34.034Z,35.30
2017-08-01T18:36:02.314Z,34.90
2017-08-01T18:38:29.904Z,34.90
2017-08-01T18:40:57.568Z,34.60
2017-08-01T18:43:25.232Z,34.60
2017-08-01T18:45:52.759Z,34.50
2017-08-01T18:48:20.377Z,34.40
2017-08-01T18:50:49.134Z,34.40
2017-08-01T18:53:16.995Z,34.40
2017-08-01T18:55:44.669Z,34.30
2017-08-01T18:58:12.194Z,34.00
2017-08-01T19:00:39.974Z,34.10
2017-08-01T19:03:07.647Z,34.20
2017-08-01T19:05:35.360Z,34.50
2017-08-01T19:08:03.651Z,34.60
2017-08-01T19:10:32.067Z,34.50
2017-08-01T19:12:59.602Z,34.60
2017-08-01T19:15:27.295Z,34.60
2017-08-01T19:17:54.991Z,34.50
2017-08-01T19:20:23.295Z,34.20
2017-08-01T19:22:51.084Z,34.10
2017-08-01T19:25:19.181Z,34.10
2017-08-01T19:27:46.746Z,34.10
2017-08-01T19:30:14.484Z,34.10
2017-08-01T19:32:42.156Z,33.50
2017-08-01T19:35:09.723Z,33.50
2017-08-01T19:37:38.308Z,33.40
2017-08-01T19:40:05.849Z,33.50
2017-08-01T19:42:33.405Z,33.80
2017-08-01T19:45:01.183Z,34.10
2017-08-01T19:47:28.946Z,34.10
2017-08-01T19:49:56.626Z,34.00
2017-08-01T19:52:24.158Z,33.80
2017-08-01T19:54:51.786Z,33.50
2017-08-01T19:57:20.277Z,33.50
2017-08-01T19:59:47.991Z,33.70
2017-08-01T20:02:15.619Z,33.40
2017-08-01T20:04:43.158Z,33.20
2017-08-01T20:07:11.373Z,33.10
2017-08-01T20:09:39.118Z,33.00
2017-08-01T20:12:06.830Z,33.10
2017-08-01T20:14:35.147Z,33.60
2017-08-01T20:17:02.701Z,33.60
2017-08-01T20:19:30.306Z,33.60
2017-08-01T20:21:58.670Z,33.70
2017-08-01T20:24:26.393Z,33.70
2017-08-01T20:26:54.026Z,33.50
2017-08-01T20:29:21.687Z,33.60
2017-08-01T20:31:49.247Z,33.60
2017-08-01T20:34:17.057Z,33.60
2017-08-01T20:36:44.726Z,33.50
2017-08-01T20:39:12.283Z,33.50
2017-08-01T20:41:39.805Z,33.60
2017-08-01T20:44:08.094Z,33.50
2017-08-01T20:46:35.625Z,33.50
2017-08-01T20:49:03.930Z,33.40
2017-08-01T20:51:31.449Z,33.40
2017-08-01T20:53:58.998Z,32.90
2017-08-01T20:56:26.528Z,32.60
2017-08-01T20:58:54.054Z,32.40
2017-08-01T21:01:22.372Z,31.90
2017-08-01T21:03:49.897Z,31.80
2017-08-01T21:06:17.429Z,31.70
2017-08-01T21:08:44.978Z,31.50
2017-08-01T21:11:12.501Z,31.40
2017-08-01T21:13:40.027Z,31.30
2017-08-01T21:16:08.347Z,31.20
2017-08-01T21:18:35.871Z,31.10
2017-08-01T21:21:03.393Z,31.30
2017-08-01T21:23:30.942Z,31.10
2017-08-01T21:25:58.468Z,31.00
2017-08-01T21:28:25.994Z,30.90
2017-08-01T21:30:54.291Z,31.20
2017-08-01T21:33:21.810Z,31.10
2017-08-01T21:35:49.370Z,31.10
2017-08-01T21:38:16.894Z,31.10
2017-08-01T21:40:44.417Z,31.40
2017-08-01T21:43:11.937Z,31.30
2017-08-01T21:45:39.454Z,31.40
2017-08-01T21:48:07.009Z,31.60
2017-08-01T21:50:34.553Z,31.50
2017-08-01T21:53:02.074Z,31.20
2017-08-01T21:55:29.606Z,31.40
2017-08-01T21:57:57.126Z,31.50
2017-08-01T22:00:24.690Z,31.60
2017-08-01T22:02:52.204Z,31.80
2017-08-01T22:05:19.757Z,31.60
2017-08-01T22:07:47.909Z,31.30
2017-08-01T22:10:15.432Z,31.50
2017-08-01T22:12:42.972Z,31.70
2017-08-01T22:15:11.368Z,31.80
2017-08-01T22:17:38.889Z,31.90
2017-08-01T22:20:06.397Z,31.90
2017-08-01T22:22:33.951Z,32.00
2017-08-01T22:25:01.505Z,31.90
2017-08-01T22:27:29.029Z,31.90
2017-08-01T22:29:56.554Z,31.80
2017-08-01T22:32:24.297Z,31.70
2017-08-01T22:34:51.817Z,31.70
2017-08-01T22:37:20.120Z,31.90
2017-08-01T22:39:47.636Z,31.80
2017-08-01T22:42:15.150Z,32.00
2017-08-01T22:44:42.680Z,32.00
2017-08-01T22:47:10.964Z,32.00
2017-08-01T22:49:38.500Z,31.90
2017-08-01T22:52:06.016Z,32.00
2017-08-01T22:54:33.524Z,31.60
2017-08-01T22:57:01.804Z,31.40
2017-08-01T22:59:30.079Z,31.10
2017-08-01T23:01:58.394Z,31.20
2017-08-01T23:04:25.909Z,31.10
2017-08-01T23:06:54.199Z,31.30
2017-08-01T23:09:22.489Z,31.30
2017-08-01T23:11:50.006Z,31.30
2017-08-01T23:14:17.544Z,31.20
2017-08-01T23:16:45.051Z,31.20
2017-08-01T23:19:12.564Z,31.30
2017-08-01T23:21:40.084Z,31.20
2017-08-01T23:24:07.596Z,31.10
2017-08-01T23:26:35.145Z,31.10
2017-08-01T23:29:02.669Z,31.10
2017-08-01T23:31:30.197Z,31.10
2017-08-01T23:33:58.491Z,31.30
2017-08-01T23:36:26.011Z,31.30
2017-08-01T23:38:53.561Z,31.40
2017-08-01T23:41:21.085Z,31.30
2017-08-01T23:43:48.608Z,31.20
2017-08-01T23:46:16.893Z,31.10
2017-08-01T23:48:44.427Z,31.10
2017-08-01T23:51:12.746Z,29.80
2017-08-01T23:53:40.270Z,29.70
2017-08-01T23:56:08.561Z,29.10
2017-08-01T23:58:36.082Z,29.10
